Time;durP1;ratioP1;P1;durP2;ratioP2;P2;SDS_P1;SDS_P2;PMS_P1;PMS_P2;Temp;Humidity;BMP_temperature;BMP_pressure;BME280_temperature;BME280_humidity;BME280_pressure;Samples;Min_cycle;Max_cycle;Signal;HPM_P1;HPM_P2
2023/11/04 00:02:04;;;;;;;5.35;2.75;;;5.90;99.90;;;;;;5050559;28;20210;-64
2023/11/04 00:04:30;;;;;;;3.53;1.85;;;5.80;99.90;;;;;;5050351;28;20749;-63
2023/11/04 00:06:58;;;;;;;2.80;1.80;;;5.80;99.90;;;;;;5050093;28;20238;-63
2023/11/04 00:09:26;;;;;;;5.43;2.40;;;5.70;99.90;;;;;;5050570;28;20207;-63
2023/11/04 00:11:52;;;;;;;3.20;2.08;;;5.70;99.90;;;;;;5051461;28;20206;-63
2023/11/04 00:14:19;;;;;;;8.85;2.38;;;5.70;99.90;;;;;;5054143;28;20711;-63
2023/11/04 00:16:47;;;;;;;4.60;2.35;;;5.60;99.90;;;;;;5053982;28;20700;-63
2023/11/04 00:19:15;;;;;;;2.60;2.40;;;5.60;99.90;;;;;;5053728;28;20228;-63
2023/11/04 00:21:42;;;;;;;3.03;2.20;;;5.50;99.90;;;;;;5054317;28;20210;-64
2023/11/04 00:24:09;;;;;;;6.03;1.90;;;5.40;99.90;;;;;;5054093;28;20675;-63
2023/11/04 00:26:37;;;;;;;1.63;1.52;;;5.40;99.90;;;;;;5053824;28;20222;-64
2023/11/04 00:29:05;;;;;;;3.30;1.50;;;5.40;99.90;;;;;;5054032;28;20261;-63
2023/11/04 00:31:33;;;;;;;2.20;2.00;;;5.30;99.90;;;;;;5054102;28;20732;-63
2023/11/04 00:34:02;;;;;;;3.63;2.20;;;5.20;99.90;;;;;;5054031;28;20207;-63
2023/11/04 00:36:29;;;;;;;5.60;1.65;;;5.20;99.90;;;;;;5053484;28;20223;-63
2023/11/04 00:38:56;;;;;;;2.30;1.70;;;5.20;99.90;;;;;;5053857;28;20320;-63
2023/11/04 00:41:23;;;;;;;2.95;2.20;;;5.10;99.90;;;;;;5053766;28;20210;-63
2023/11/04 00:43:50;;;;;;;2.25;1.65;;;5.00;99.90;;;;;;5053806;28;20297;-64
2023/11/04 00:46:17;;;;;;;2.45;2.25;;;5.00;99.90;;;;;;5053309;28;20833;-64
2023/11/04 00:48:44;;;;;;;5.38;3.38;;;5.00;99.90;;;;;;5053602;28;20292;-63
2023/11/04 00:51:12;;;;;;;2.05;1.80;;;4.90;99.90;;;;;;5053605;28;20300;-63
2023/11/04 00:53:39;;;;;;;3.08;1.98;;;4.90;99.90;;;;;;5053691;28;20213;-63
2023/11/04 00:56:06;;;;;;;4.35;2.42;;;4.80;99.90;;;;;;5053016;28;20230;-63
2023/11/04 00:58:33;;;;;;;2.30;1.73;;;4.80;99.90;;;;;;5053096;28;20222;-63
2023/11/04 01:01:00;;;;;;;5.15;2.22;;;4.70;99.90;;;;;;5053370;28;20589;-63
2023/11/04 01:03:27;;;;;;;2.55;1.80;;;4.70;99.90;;;;;;5053427;28;20753;-63
2023/11/04 01:05:54;;;;;;;1.98;1.88;;;4.70;99.90;;;;;;5052844;28;20321;-63
2023/11/04 01:08:22;;;;;;;2.25;1.95;;;4.60;99.90;;;;;;5053325;28;20257;-63
2023/11/04 01:10:49;;;;;;;3.85;1.95;;;4.60;99.90;;;;;;5053293;28;20216;-63
2023/11/04 01:13:15;;;;;;;4.60;2.17;;;4.60;99.90;;;;;;5053176;28;20244;-63
2023/11/04 01:15:42;;;;;;;2.25;1.85;;;4.60;99.90;;;;;;5052572;28;20333;-63
2023/11/04 01:18:09;;;;;;;1.63;1.52;;;4.50;99.90;;;;;;5053046;28;20317;-64
2023/11/04 01:20:36;;;;;;;3.17;2.00;;;4.50;99.90;;;;;;5053028;28;20202;-63
2023/11/04 01:23:03;;;;;;;6.18;2.83;;;4.50;99.90;;;;;;5052741;28;20240;-63
2023/11/04 01:25:31;;;;;;;2.25;2.05;;;4.50;99.90;;;;;;5074796;22;21229;-63
2023/11/04 01:27:58;;;;;;;2.70;2.42;;;4.60;99.90;;;;;;5052685;28;20288;-63
2023/11/04 01:30:25;;;;;;;2.45;1.60;;;4.50;99.90;;;;;;5053786;28;20588;-63
2023/11/04 01:32:52;;;;;;;3.92;2.00;;;4.60;99.90;;;;;;5053743;28;20205;-63
2023/11/04 01:35:18;;;;;;;1.77;1.67;;;4.60;99.90;;;;;;5053269;28;20209;-63
2023/11/04 01:37:45;;;;;;;2.28;1.63;;;4.60;99.90;;;;;;5053324;28;20213;-63
2023/11/04 01:40:13;;;;;;;2.78;2.60;;;4.50;99.90;;;;;;5053472;28;20206;-63
2023/11/04 01:42:44;;;;;;;2.72;2.10;;;4.50;99.90;;;;;;5053277;28;20203;-63
2023/11/04 01:45:11;;;;;;;2.00;1.90;;;4.50;99.90;;;;;;5053270;28;20214;-64
2023/11/04 01:47:39;;;;;;;2.25;2.15;;;4.50;99.90;;;;;;5053499;28;20206;-63
2023/11/04 01:50:07;;;;;;;4.18;2.55;;;4.50;99.90;;;;;;5053252;28;20214;-63
2023/11/04 01:52:37;;;;;;;2.22;2.03;;;4.50;99.90;;;;;;5053331;28;20318;-63
2023/11/04 01:55:07;;;;;;;2.45;2.13;;;4.50;99.90;;;;;;5053369;28;20361;-63
2023/11/04 01:57:34;;;;;;;2.58;2.20;;;4.50;99.90;;;;;;5053143;28;20837;-63
2023/11/04 02:00:04;;;;;;;2.45;1.75;;;4.50;99.90;;;;;;5052963;28;20711;-63
2023/11/04 02:02:32;;;;;;;1.70;1.60;;;4.60;99.90;;;;;;5053192;28;20250;-63
2023/11/04 02:04:59;;;;;;;2.22;2.03;;;4.60;99.90;;;;;;5052686;28;20217;-63
2023/11/04 02:07:26;;;;;;;3.35;2.13;;;4.60;99.90;;;;;;5053046;28;20265;-63
2023/11/04 02:09:53;;;;;;;2.45;1.58;;;4.60;99.90;;;;;;5052814;28;20238;-63
2023/11/04 02:12:22;;;;;;;2.50;2.30;;;4.70;99.90;;;;;;5053051;28;20208;-63
2023/11/04 02:14:52;;;;;;;3.55;1.85;;;4.70;99.90;;;;;;5052750;28;20237;-63
2023/11/04 02:17:21;;;;;;;1.75;1.65;;;4.80;99.90;;;;;;5052366;28;20296;-63
2023/11/04 02:19:48;;;;;;;5.63;2.33;;;4.80;99.90;;;;;;5051569;28;20742;-63
2023/11/04 02:22:16;;;;;;;4.03;2.80;;;4.90;99.90;;;;;;5044569;28;20580;-63
2023/11/04 02:24:43;;;;;;;8.68;2.80;;;4.90;99.90;;;;;;5052652;28;20210;-63
2023/11/04 02:27:10;;;;;;;2.08;1.88;;;5.00;99.90;;;;;;5052178;28;20320;-63
2023/11/04 02:29:38;;;;;;;3.15;1.95;;;5.00;99.90;;;;;;5052664;28;20695;-63
2023/11/04 02:32:06;;;;;;;2.05;1.95;;;5.10;99.90;;;;;;5040679;28;20685;-63
2023/11/04 02:34:32;;;;;;;7.57;2.25;;;5.20;99.90;;;;;;5052225;28;20221;-63
2023/11/04 02:37:00;;;;;;;3.15;2.58;;;5.20;99.90;;;;;;5051864;28;20738;-63
2023/11/04 02:39:28;;;;;;;3.63;3.00;;;5.20;99.90;;;;;;5052166;28;20237;-63
2023/11/04 02:41:55;;;;;;;2.92;2.20;;;5.30;99.90;;;;;;5052531;28;20296;-63
2023/11/04 02:44:21;;;;;;;3.33;2.20;;;5.30;99.90;;;;;;5052157;28;20657;-63
2023/11/04 02:46:49;;;;;;;3.22;2.58;;;5.40;99.90;;;;;;5051988;28;20233;-63
2023/11/04 02:49:16;;;;;;;2.53;2.33;;;5.50;99.90;;;;;;5052647;28;20321;-63
2023/11/04 02:51:42;;;;;;;2.97;2.40;;;5.60;99.90;;;;;;5052686;28;20217;-63
2023/11/04 02:54:09;;;;;;;3.10;2.60;;;5.70;99.90;;;;;;5052619;28;20615;-63
2023/11/04 02:56:37;;;;;;;3.92;2.45;;;5.70;99.90;;;;;;5052146;28;20230;-63
2023/11/04 02:59:04;;;;;;;2.55;2.35;;;5.80;99.90;;;;;;5052034;28;20222;-63
2023/11/04 03:01:31;;;;;;;2.50;2.08;;;5.90;99.90;;;;;;5051373;28;20220;-63
2023/11/04 03:04:01;;;;;;;2.92;2.00;;;6.00;99.90;;;;;;5052091;28;20212;-63
2023/11/04 03:06:27;;;;;;;3.72;1.98;;;6.00;99.90;;;;;;5051685;28;20226;-63
2023/11/04 03:08:54;;;;;;;2.63;1.92;;;6.10;99.90;;;;;;5052075;28;20202;-63
2023/11/04 03:11:22;;;;;;;3.05;1.80;;;6.10;99.90;;;;;;5052160;28;20206;-63
2023/11/04 03:13:50;;;;;;;3.90;2.13;;;6.20;99.90;;;;;;5051886;28;20214;-63
2023/11/04 03:16:21;;;;;;;4.32;1.95;;;6.20;99.90;;;;;;5051964;28;20280;-63
2023/11/04 03:18:48;;;;;;;2.13;1.92;;;6.30;99.90;;;;;;5052089;28;20226;-63
2023/11/04 03:21:15;;;;;;;2.72;2.05;;;6.30;99.90;;;;;;5051825;28;20282;-63
2023/11/04 03:23:42;;;;;;;1.75;1.65;;;6.30;99.90;;;;;;5051835;28;20214;-64
2023/11/04 03:26:09;;;;;;;5.55;2.03;;;6.40;99.90;;;;;;5051069;28;20261;-63
2023/11/04 03:28:36;;;;;;;2.47;2.22;;;6.40;99.90;;;;;;5052033;28;20202;-64
2023/11/04 03:31:05;;;;;;;2.85;2.63;;;6.40;99.90;;;;;;5051907;28;20213;-63
2023/11/04 03:33:32;;;;;;;2.75;1.98;;;6.50;99.90;;;;;;5052128;28;20305;-63
2023/11/04 03:35:59;;;;;;;3.78;2.05;;;6.50;99.90;;;;;;5051331;28;20226;-63
2023/11/04 03:38:26;;;;;;;2.75;2.53;;;6.50;99.90;;;;;;5051451;28;20203;-63
2023/11/04 03:40:53;;;;;;;3.67;2.80;;;6.50;99.90;;;;;;5045034;28;20257;-63
2023/11/04 03:43:20;;;;;;;5.75;2.70;;;6.50;99.90;;;;;;5050075;28;20212;-63
2023/11/04 03:45:47;;;;;;;4.13;2.60;;;6.50;99.90;;;;;;5052629;28;20226;-63
2023/11/04 03:48:15;;;;;;;4.13;3.78;;;6.50;99.90;;;;;;5056179;28;20296;-63
2023/11/04 03:50:42;;;;;;;1.95;1.85;;;6.50;99.90;;;;;;5055722;28;20805;-63
2023/11/04 03:53:09;;;;;;;1.80;1.70;;;6.50;99.90;;;;;;5055622;28;20296;-64
2023/11/04 03:55:36;;;;;;;2.70;1.80;;;6.50;99.90;;;;;;5055204;28;20254;-64
2023/11/04 03:58:03;;;;;;;4.70;2.35;;;6.50;99.90;;;;;;5055852;28;20217;-63
2023/11/04 04:00:31;;;;;;;3.10;2.53;;;6.60;99.90;;;;;;5056083;28;20243;-63
2023/11/04 04:02:58;;;;;;;1.73;1.63;;;6.60;99.90;;;;;;5055594;28;20206;-63
2023/11/04 04:05:26;;;;;;;1.73;1.63;;;6.60;99.90;;;;;;5054755;28;20213;-64
2023/11/04 04:07:53;;;;;;;2.42;1.58;;;6.60;99.90;;;;;;5055467;28;20202;-63
2023/11/04 04:10:20;;;;;;;1.92;1.58;;;6.70;99.90;;;;;;5055752;28;20208;-63
2023/11/04 04:12:47;;;;;;;2.10;2.00;;;6.70;99.90;;;;;;5055093;28;20297;-64
2023/11/04 04:15:14;;;;;;;1.80;1.70;;;6.70;99.90;;;;;;5055113;28;20207;-64
2023/11/04 04:17:43;;;;;;;3.95;1.73;;;6.70;99.90;;;;;;5054044;28;20207;-63
2023/11/04 04:20:12;;;;;;;2.65;2.10;;;6.70;99.90;;;;;;5055047;28;20222;-63
2023/11/04 04:22:41;;;;;;;2.13;1.83;;;6.70;99.90;;;;;;5054986;28;20237;-63
2023/11/04 04:25:09;;;;;;;2.10;2.00;;;6.70;99.90;;;;;;5054656;28;20688;-64
2023/11/04 04:27:36;;;;;;;6.45;2.08;;;6.80;99.90;;;;;;5054987;28;20206;-63
2023/11/04 04:30:04;;;;;;;2.22;2.05;;;6.80;99.90;;;;;;5055138;28;20209;-63
2023/11/04 04:32:31;;;;;;;3.20;2.20;;;6.80;99.90;;;;;;5055132;28;20267;-63
2023/11/04 04:34:59;;;;;;;2.03;1.75;;;6.80;99.90;;;;;;5054499;28;20273;-63
2023/11/04 04:37:27;;;;;;;1.45;1.45;;;6.80;99.90;;;;;;5054939;28;20230;-63
2023/11/04 04:39:56;;;;;;;2.63;2.42;;;6.80;99.90;;;;;;5054848;28;20232;-63
2023/11/04 04:42:23;;;;;;;1.73;1.63;;;6.80;99.90;;;;;;5054757;28;20216;-63
2023/11/04 04:44:50;;;;;;;2.45;1.70;;;6.80;99.90;;;;;;5054575;28;20260;-63
2023/11/04 04:47:16;;;;;;;1.52;1.42;;;6.90;99.90;;;;;;5054143;28;20236;-63
2023/11/04 04:49:43;;;;;;;1.65;1.55;;;6.90;99.90;;;;;;5054876;28;20241;-63
2023/11/04 04:52:11;;;;;;;2.03;1.60;;;6.90;99.90;;;;;;5054815;28;20210;-63
2023/11/04 04:54:37;;;;;;;1.85;1.70;;;6.90;99.90;;;;;;5054459;28;20206;-63
2023/11/04 04:57:06;;;;;;;2.10;1.90;;;6.90;99.90;;;;;;5053751;28;20626;-63
2023/11/04 04:59:33;;;;;;;3.20;2.97;;;7.00;99.90;;;;;;5054134;28;20230;-64
2023/11/04 05:02:02;;;;;;;3.33;2.20;;;7.00;99.90;;;;;;5054402;28;20210;-63
2023/11/04 05:04:29;;;;;;;1.92;1.67;;;7.00;99.90;;;;;;5054205;28;20211;-63
2023/11/04 05:06:55;;;;;;;1.85;1.52;;;7.00;99.90;;;;;;5053843;28;20225;-64
2023/11/04 05:09:23;;;;;;;1.77;1.75;;;7.00;99.90;;;;;;5054171;28;20297;-63
2023/11/04 05:11:52;;;;;;;3.47;1.88;;;7.00;99.90;;;;;;5054200;28;20260;-63
2023/11/04 05:14:20;;;;;;;2.67;1.70;;;7.00;99.90;;;;;;5054120;28;20302;-64
2023/11/04 05:16:47;;;;;;;2.30;2.08;;;7.00;99.90;;;;;;5054118;28;20229;-63
2023/11/04 05:19:14;;;;;;;2.13;1.60;;;7.00;99.90;;;;;;5054184;28;20229;-63
2023/11/04 05:21:41;;;;;;;2.08;1.30;;;7.10;99.90;;;;;;5054056;28;20209;-63
2023/11/04 05:24:08;;;;;;;2.65;2.45;;;7.10;99.90;;;;;;5053939;28;20238;-63
2023/11/04 05:26:39;;;;;;;1.95;1.83;;;7.10;99.90;;;;;;5053535;28;20245;-64
2023/11/04 05:29:06;;;;;;;1.92;1.83;;;7.10;99.90;;;;;;5053905;28;20296;-63
2023/11/04 05:31:34;;;;;;;2.00;1.88;;;7.20;99.90;;;;;;5053944;28;20297;-63
2023/11/04 05:34:01;;;;;;;1.65;1.55;;;7.20;99.90;;;;;;5053522;28;20703;-63
2023/11/04 05:36:28;;;;;;;1.75;1.65;;;7.20;99.90;;;;;;5053424;28;20622;-63
2023/11/04 05:38:55;;;;;;;1.80;1.70;;;7.20;99.90;;;;;;5053478;28;20735;-63
2023/11/04 05:41:22;;;;;;;1.67;1.58;;;7.20;99.90;;;;;;5053631;28;20213;-64
2023/11/04 05:43:49;;;;;;;1.90;1.77;;;7.20;99.90;;;;;;5053370;28;20206;-63
2023/11/04 05:46:15;;;;;;;2.05;1.95;;;7.20;99.90;;;;;;5053413;28;20600;-63
2023/11/04 05:48:43;;;;;;;2.03;1.90;;;7.20;99.90;;;;;;5053665;28;20221;-63
2023/11/04 05:51:11;;;;;;;1.80;1.70;;;7.20;99.90;;;;;;5053512;28;20198;-63
2023/11/04 05:53:38;;;;;;;1.80;1.70;;;7.30;99.90;;;;;;5053376;28;20229;-63
2023/11/04 05:56:07;;;;;;;2.35;2.15;;;7.30;99.90;;;;;;5052775;28;20249;-64
2023/11/04 05:58:34;;;;;;;5.50;2.70;;;7.30;99.90;;;;;;5053462;28;20289;-63
2023/11/04 06:01:01;;;;;;;6.90;3.38;;;7.30;99.90;;;;;;5053324;28;20237;-63
2023/11/04 06:03:28;;;;;;;2.67;2.47;;;7.30;99.90;;;;;;5047603;28;20211;-64
2023/11/04 06:05:57;;;;;;;3.38;2.45;;;7.30;99.90;;;;;;5041370;28;20280;-64
2023/11/04 06:08:24;;;;;;;1.83;1.73;;;7.30;99.90;;;;;;5049198;28;20639;-64
2023/11/04 06:10:51;;;;;;;1.92;1.83;;;7.30;99.90;;;;;;5048471;28;20191;-64
2023/11/04 06:13:18;;;;;;;3.75;3.45;;;7.30;99.90;;;;;;5052966;28;20582;-63
2023/11/04 06:15:45;;;;;;;2.45;2.25;;;7.30;99.90;;;;;;5052511;28;20261;-63
2023/11/04 06:18:12;;;;;;;2.70;2.60;;;7.30;99.90;;;;;;5052773;28;20205;-64
2023/11/04 06:20:38;;;;;;;3.70;3.42;;;7.30;99.90;;;;;;5052425;28;20222;-63
2023/11/04 06:23:07;;;;;;;2.05;1.70;;;7.30;99.90;;;;;;5052577;28;20202;-63
2023/11/04 06:25:33;;;;;;;4.90;2.00;;;7.30;99.90;;;;;;5051990;28;20238;-63
2023/11/04 06:28:01;;;;;;;2.58;1.80;;;7.30;99.90;;;;;;5052713;28;20228;-63
2023/11/04 06:30:28;;;;;;;2.30;1.85;;;7.30;99.90;;;;;;5052482;28;20202;-63
2023/11/04 06:32:55;;;;;;;5.70;1.50;;;7.30;99.90;;;;;;5052569;28;20202;-64
2023/11/04 06:35:22;;;;;;;3.72;2.08;;;7.30;99.90;;;;;;5052039;28;20212;-64
2023/11/04 06:37:49;;;;;;;6.53;1.55;;;7.40;99.90;;;;;;5052270;28;20680;-64
2023/11/04 06:40:17;;;;;;;1.60;1.50;;;7.40;99.90;;;;;;5052160;28;20317;-63
2023/11/04 06:42:44;;;;;;;1.60;1.50;;;7.40;99.90;;;;;;5052371;28;20309;-63
2023/11/04 06:45:11;;;;;;;2.40;2.20;;;7.40;99.90;;;;;;5051743;28;20207;-63
2023/11/04 06:47:38;;;;;;;2.05;1.75;;;7.40;99.90;;;;;;5052199;28;20252;-64
2023/11/04 06:50:05;;;;;;;2.13;2.03;;;7.40;99.90;;;;;;5052104;28;20202;-64
2023/11/04 06:52:32;;;;;;;1.30;1.30;;;7.40;99.90;;;;;;5051933;28;20674;-63
2023/11/04 06:55:00;;;;;;;1.90;1.80;;;7.50;99.90;;;;;;5051777;28;20213;-64
2023/11/04 06:57:28;;;;;;;3.03;2.22;;;7.50;99.90;;;;;;5051521;28;20234;-63
2023/11/04 06:59:55;;;;;;;2.85;2.65;;;7.50;99.90;;;;;;5052006;28;20222;-64
2023/11/04 07:02:22;;;;;;;2.88;1.90;;;7.50;99.90;;;;;;5051799;28;20640;-64
2023/11/04 07:04:49;;;;;;;2.15;2.05;;;7.50;99.90;;;;;;5051909;28;20289;-63
2023/11/04 07:07:16;;;;;;;3.72;3.53;;;7.50;99.90;;;;;;5051525;28;20987;-63
2023/11/04 07:09:43;;;;;;;2.65;2.20;;;7.50;99.90;;;;;;5052026;28;20210;-63
2023/11/04 07:12:10;;;;;;;2.05;1.95;;;7.50;99.90;;;;;;5051612;28;20210;-64
2023/11/04 07:14:38;;;;;;;2.15;2.05;;;7.60;99.90;;;;;;5051925;28;20209;-63
2023/11/04 07:17:05;;;;;;;2.70;2.10;;;7.60;99.90;;;;;;5051735;28;20596;-63
2023/11/04 07:19:32;;;;;;;1.63;1.52;;;7.60;99.90;;;;;;5051623;28;20418;-64
2023/11/04 07:22:00;;;;;;;1.80;1.70;;;7.60;99.90;;;;;;5051153;28;20206;-63
2023/11/04 07:24:27;;;;;;;1.80;1.60;;;7.60;99.90;;;;;;5051895;28;20210;-63
2023/11/04 07:26:55;;;;;;;2.95;1.92;;;7.60;99.90;;;;;;5073148;22;20230;-64
2023/11/04 07:29:21;;;;;;;1.80;1.63;;;7.70;99.90;;;;;;5051147;28;20210;-64
2023/11/04 07:31:50;;;;;;;3.20;2.00;;;7.70;99.90;;;;;;5051185;28;20569;-64
2023/11/04 07:34:17;;;;;;;1.65;1.55;;;7.70;99.90;;;;;;5050958;28;20213;-63
2023/11/04 07:36:44;;;;;;;2.03;1.83;;;7.70;99.90;;;;;;5050738;28;20575;-64
2023/11/04 07:39:11;;;;;;;3.03;1.60;;;7.70;99.90;;;;;;5051159;28;20209;-64
2023/11/04 07:41:41;;;;;;;3.03;1.45;;;7.70;99.90;;;;;;5051063;28;20237;-64
2023/11/04 07:44:07;;;;;;;1.60;1.50;;;7.80;99.90;;;;;;5050995;28;20207;-64
2023/11/04 07:46:34;;;;;;;4.88;2.40;;;7.80;99.90;;;;;;5050704;28;20234;-63
2023/11/04 07:49:02;;;;;;;4.35;2.50;;;7.70;99.90;;;;;;5050901;28;20206;-64
2023/11/04 07:51:29;;;;;;;1.65;1.48;;;7.70;99.90;;;;;;5050949;28;20580;-64
2023/11/04 07:53:56;;;;;;;2.25;1.75;;;7.70;99.90;;;;;;5051298;28;20213;-64
2023/11/04 07:56:23;;;;;;;2.13;1.60;;;7.70;99.90;;;;;;5050860;28;20620;-64
2023/11/04 07:58:50;;;;;;;3.70;2.40;;;7.70;99.90;;;;;;5050989;28;20249;-64
2023/11/04 08:01:19;;;;;;;5.53;2.40;;;7.70;99.90;;;;;;5051114;28;20338;-63
2023/11/04 08:03:46;;;;;;;2.38;2.20;;;7.70;99.90;;;;;;5051004;28;20281;-63
2023/11/04 08:06:18;;;;;;;2.50;2.40;;;7.70;99.90;;;;;;5050607;28;20787;-64
2023/11/04 08:08:45;;;;;;;2.10;2.00;;;7.80;99.90;;;;;;5050126;28;20655;-63
2023/11/04 08:11:12;;;;;;;2.13;2.00;;;7.70;99.90;;;;;;5050148;28;20570;-63
2023/11/04 08:13:39;;;;;;;1.52;1.42;;;7.70;99.90;;;;;;5038906;28;20210;-63
2023/11/04 08:16:07;;;;;;;2.38;2.20;;;7.70;99.90;;;;;;5050174;28;20213;-64
2023/11/04 08:18:34;;;;;;;3.10;2.15;;;7.70;99.90;;;;;;5049447;28;20222;-64
2023/11/04 08:21:02;;;;;;;3.65;3.15;;;7.70;99.90;;;;;;5050569;28;20236;-64
2023/11/04 08:23:30;;;;;;;2.10;2.00;;;7.70;99.90;;;;;;5050123;28;20796;-63
2023/11/04 08:25:57;;;;;;;5.35;2.17;;;7.70;99.90;;;;;;5050171;28;20214;-64
2023/11/04 08:28:24;;;;;;;2.55;1.90;;;7.70;99.90;;;;;;5049629;28;20256;-63
2023/11/04 08:30:52;;;;;;;2.33;2.22;;;7.70;99.90;;;;;;5050524;28;20221;-64
2023/11/04 08:33:19;;;;;;;1.60;1.50;;;7.70;99.90;;;;;;5051464;28;20887;-63
2023/11/04 08:35:46;;;;;;;2.17;2.08;;;7.70;99.90;;;;;;5053761;28;20328;-64
2023/11/04 08:38:13;;;;;;;1.35;1.30;;;7.80;99.90;;;;;;5056206;28;20597;-64
2023/11/04 08:40:41;;;;;;;3.40;1.80;;;7.80;99.90;;;;;;5050320;28;20700;-63
2023/11/04 08:43:08;;;;;;;2.72;2.53;;;7.80;99.90;;;;;;5053488;28;20297;-64
2023/11/04 08:45:35;;;;;;;2.08;1.98;;;7.80;99.90;;;;;;5046098;28;20213;-64
2023/11/04 08:48:01;;;;;;;1.92;1.83;;;7.80;99.90;;;;;;5047660;28;20317;-64
2023/11/04 08:50:28;;;;;;;1.60;1.50;;;7.90;99.90;;;;;;5052964;28;20194;-64
2023/11/04 08:52:55;;;;;;;1.48;1.35;;;7.90;99.90;;;;;;5053380;28;20202;-63
2023/11/04 08:55:22;;;;;;;2.55;1.88;;;8.00;99.90;;;;;;5052722;28;20260;-64
2023/11/04 08:57:50;;;;;;;1.50;1.30;;;8.00;99.90;;;;;;5052803;28;20301;-64
2023/11/04 09:00:18;;;;;;;1.00;1.00;;;8.10;99.90;;;;;;5050887;28;20301;-65
2023/11/04 09:02:44;;;;;;;1.10;1.00;;;8.10;99.90;;;;;;5047909;28;20718;-65
2023/11/04 09:05:11;;;;;;;1.98;1.88;;;8.20;99.90;;;;;;5052153;28;20207;-64
2023/11/04 09:07:38;;;;;;;3.00;1.10;;;8.20;99.90;;;;;;5059697;28;20279;-65
2023/11/04 09:10:05;;;;;;;1.30;1.20;;;8.30;99.90;;;;;;5052743;28;20213;-64
2023/11/04 09:12:32;;;;;;;1.90;1.80;;;8.40;99.90;;;;;;5059259;28;20204;-64
2023/11/04 09:15:01;;;;;;;2.13;1.33;;;8.40;99.90;;;;;;5053148;28;20206;-64
2023/11/04 09:17:27;;;;;;;1.30;1.20;;;8.50;99.90;;;;;;5052154;28;20226;-65
2023/11/04 09:19:54;;;;;;;1.20;1.10;;;8.60;99.90;;;;;;5052919;28;20289;-65
2023/11/04 09:22:21;;;;;;;1.15;1.05;;;8.70;99.90;;;;;;5051672;28;20226;-65
2023/11/04 09:24:48;;;;;;;1.92;1.15;;;8.80;99.90;;;;;;5052919;28;20804;-65
2023/11/04 09:27:15;;;;;;;2.08;0.90;;;9.00;99.90;;;;;;5051812;28;20754;-65
2023/11/04 09:29:42;;;;;;;2.03;1.30;;;9.10;99.90;;;;;;5052913;28;20252;-65
2023/11/04 09:32:11;;;;;;;1.13;1.00;;;9.20;99.90;;;;;;5053366;28;20226;-65
2023/11/04 09:34:38;;;;;;;4.53;1.63;;;9.20;99.90;;;;;;5052973;28;20477;-65
2023/11/04 09:37:05;;;;;;;1.00;1.00;;;9.30;99.90;;;;;;5052455;28;20456;-65
2023/11/04 09:39:32;;;;;;;1.40;1.30;;;9.30;99.90;;;;;;5052180;28;20445;-66
2023/11/04 09:41:58;;;;;;;1.80;1.70;;;9.40;99.90;;;;;;5052219;28;20485;-65
2023/11/04 09:44:25;;;;;;;1.60;1.50;;;9.40;99.90;;;;;;5052299;28;20961;-65
2023/11/04 09:46:52;;;;;;;1.50;1.37;;;9.50;99.90;;;;;;5052268;28;20974;-66
2023/11/04 09:49:21;;;;;;;0.90;0.90;;;9.60;99.90;;;;;;5052532;28;20447;-65
2023/11/04 09:51:48;;;;;;;1.90;1.17;;;9.70;99.90;;;;;;5052579;28;20539;-65
2023/11/04 09:54:16;;;;;;;2.03;1.20;;;9.90;99.90;;;;;;5052040;28;20463;-66
2023/11/04 09:56:43;;;;;;;1.00;1.00;;;10.00;99.90;;;;;;5051929;28;20464;-66
2023/11/04 09:59:10;;;;;;;0.97;0.90;;;10.10;99.90;;;;;;5052373;28;20888;-65
2023/11/04 10:01:37;;;;;;;1.37;1.20;;;10.30;99.90;;;;;;5052313;28;20484;-66
2023/11/04 10:04:04;;;;;;;1.00;0.83;;;10.50;99.90;;;;;;5052292;28;20449;-65
2023/11/04 10:06:33;;;;;;;1.00;0.90;;;10.70;99.90;;;;;;5051750;28;20531;-65
2023/11/04 10:09:00;;;;;;;1.17;1.00;;;10.80;99.90;;;;;;5051565;28;20456;-66
2023/11/04 10:11:29;;;;;;;0.90;0.90;;;10.90;99.90;;;;;;5052255;28;20445;-65
2023/11/04 10:13:56;;;;;;;1.23;1.07;;;11.00;99.90;;;;;;5051731;28;20445;-65
2023/11/04 10:16:23;;;;;;;1.47;1.07;;;11.00;99.90;;;;;;5051241;28;20445;-65
2023/11/04 10:18:50;;;;;;;1.17;1.00;;;11.20;99.90;;;;;;5051586;28;20814;-66
2023/11/04 10:21:19;;;;;;;1.80;1.70;;;11.30;99.90;;;;;;5051301;28;20488;-66
2023/11/04 10:23:47;;;;;;;1.37;1.27;;;11.30;99.90;;;;;;5050553;28;20804;-65
2023/11/04 10:26:16;;;;;;;1.00;1.00;;;11.40;99.90;;;;;;5051013;28;20531;-65
2023/11/04 10:28:43;;;;;;;1.03;0.97;;;11.50;99.90;;;;;;5051333;28;20445;-66
2023/11/04 10:31:12;;;;;;;0.90;0.90;;;11.60;99.90;;;;;;5051384;28;20441;-66
2023/11/04 10:33:42;;;;;;;4.20;1.20;;;11.70;99.90;;;;;;5051536;28;20443;-66
2023/11/04 10:36:11;;;;;;;1.23;0.93;;;11.80;99.90;;;;;;5050842;28;21090;-65
2023/11/04 10:38:43;;;;;;;1.40;1.33;;;11.90;99.90;;;;;;5051187;28;20552;-65
2023/11/04 10:41:16;;;;;;;1.00;0.90;;;11.90;99.90;;;;;;5051004;28;21014;-65
2023/11/04 10:43:49;;;;;;;0.90;0.90;;;11.90;99.90;;;;;;5051273;28;20528;-66
2023/11/04 10:46:22;;;;;;;0.50;0.50;;;12.00;99.90;;;;;;5050687;28;21031;-66
2023/11/04 10:48:52;;;;;;;1.17;1.17;;;12.10;99.90;;;;;;5051105;28;20480;-65
2023/11/04 10:51:23;;;;;;;2.00;0.70;;;12.20;99.90;;;;;;5049111;28;20912;-66
2023/11/04 10:53:59;;;;;;;1.20;1.10;;;12.30;99.90;;;;;;5050415;28;20893;-66
2023/11/04 10:56:43;;;;;;;1.87;1.00;;;12.20;99.90;;;;;;5049319;28;20483;-66
2023/11/04 10:59:16;;;;;;;0.63;0.63;;;12.20;99.90;;;;;;5050559;28;20895;-65
2023/11/04 11:01:46;;;;;;;0.60;0.60;;;12.20;99.90;;;;;;5050803;28;20488;-66
2023/11/04 11:04:16;;;;;;;0.93;0.93;;;12.40;99.90;;;;;;5050300;28;20448;-66
2023/11/04 11:06:44;;;;;;;0.67;0.60;;;12.40;99.90;;;;;;5049302;28;20986;-66
2023/11/04 11:09:13;;;;;;;0.97;0.63;;;12.50;99.90;;;;;;5049159;28;20544;-66
2023/11/04 11:11:49;;;;;;;0.80;0.80;;;12.60;99.90;;;;;;5049260;28;20452;-66
2023/11/04 11:14:16;;;;;;;0.50;0.50;;;12.70;99.90;;;;;;5050045;28;20544;-66
2023/11/04 11:16:43;;;;;;;0.60;0.60;;;12.70;99.90;;;;;;5048995;28;20466;-66
2023/11/04 11:19:11;;;;;;;0.70;0.70;;;12.80;99.90;;;;;;5049590;28;20531;-66
2023/11/04 11:21:49;;;;;;;0.70;0.70;;;12.80;99.90;;;;;;5049864;28;20576;-65
2023/11/04 11:24:16;;;;;;;1.33;1.23;;;12.70;99.90;;;;;;5050770;28;20453;-65
2023/11/04 11:26:51;;;;;;;0.73;0.73;;;12.60;99.90;;;;;;5049329;28;20564;-66
2023/11/04 11:29:25;;;;;;;3.83;1.13;;;12.60;99.90;;;;;;5050328;28;20523;-65
2023/11/04 11:32:04;;;;;;;0.80;0.70;;;12.50;99.90;;;;;;5050095;28;20516;-65
2023/11/04 11:34:31;;;;;;;1.17;0.90;;;12.50;99.90;;;;;;5050068;28;20444;-65
2023/11/04 11:37:00;;;;;;;0.90;0.90;;;12.40;99.90;;;;;;5050250;28;20835;-64
2023/11/04 11:39:28;;;;;;;1.17;1.07;;;12.30;99.90;;;;;;5050466;28;20445;-66
2023/11/04 11:41:57;;;;;;;1.67;1.20;;;12.30;99.90;;;;;;5049939;28;20588;-65
2023/11/04 11:44:23;;;;;;;1.03;1.03;;;12.30;99.90;;;;;;5050049;28;20445;-65
2023/11/04 11:46:54;;;;;;;3.33;1.60;;;12.20;99.90;;;;;;5049752;28;20468;-65
2023/11/04 11:49:21;;;;;;;1.87;0.73;;;12.20;99.90;;;;;;5049837;28;20476;-65
2023/11/04 11:51:48;;;;;;;0.60;0.60;;;12.10;99.90;;;;;;5049843;28;20441;-66
2023/11/04 11:54:16;;;;;;;5.37;1.03;;;12.00;99.90;;;;;;5049898;28;20533;-66
2023/11/04 11:56:42;;;;;;;2.43;0.90;;;12.10;99.90;;;;;;5049640;28;21015;-65
2023/11/04 11:59:13;;;;;;;1.53;1.00;;;12.10;99.90;;;;;;5050058;28;20544;-65
2023/11/04 12:01:40;;;;;;;2.23;0.90;;;12.20;99.90;;;;;;5049781;28;21093;-65
2023/11/04 12:04:07;;;;;;;1.07;0.90;;;12.30;99.90;;;;;;5050319;28;20460;-65
2023/11/04 12:06:34;;;;;;;1.07;0.90;;;12.30;99.90;;;;;;5049878;28;20457;-66
2023/11/04 12:09:00;;;;;;;0.93;0.90;;;12.40;99.90;;;;;;5052904;28;20451;-65
2023/11/04 12:11:29;;;;;;;1.17;0.90;;;12.30;99.90;;;;;;5053820;28;20536;-65
2023/11/04 12:13:56;;;;;;;1.90;0.60;;;12.40;99.90;;;;;;5053761;28;20520;-65
2023/11/04 12:16:24;;;;;;;0.90;0.90;;;12.40;99.90;;;;;;5053115;28;20535;-65
2023/11/04 12:18:53;;;;;;;0.70;0.60;;;12.30;99.90;;;;;;5053668;28;20443;-65
2023/11/04 12:21:20;;;;;;;2.67;1.00;;;12.30;99.90;;;;;;5053221;28;20507;-65
2023/11/04 12:23:47;;;;;;;0.80;0.60;;;12.30;99.90;;;;;;5053510;28;20973;-65
2023/11/04 12:26:14;;;;;;;0.83;0.83;;;12.20;99.90;;;;;;5053471;28;20527;-65
2023/11/04 12:28:43;;;;;;;1.37;0.63;;;12.20;99.90;;;;;;5053389;28;20441;-65
2023/11/04 12:31:11;;;;;;;0.83;0.73;;;12.10;99.90;;;;;;5053522;28;20447;-65
2023/11/04 12:33:40;;;;;;;2.73;0.97;;;12.10;99.90;;;;;;5053165;28;20886;-65
2023/11/04 12:36:10;;;;;;;1.37;0.67;;;12.00;99.90;;;;;;5052860;28;20524;-65
2023/11/04 12:38:39;;;;;;;2.93;1.80;;;11.90;99.90;;;;;;5053146;28;20839;-65
2023/11/04 12:41:09;;;;;;;1.83;1.03;;;11.90;99.90;;;;;;5053076;28;20502;-65
2023/11/04 12:43:37;;;;;;;3.30;1.00;;;11.90;99.90;;;;;;5053421;28;20494;-65
2023/11/04 12:46:05;;;;;;;0.80;0.80;;;12.00;99.90;;;;;;5053144;28;20962;-65
2023/11/04 12:48:32;;;;;;;0.50;0.50;;;12.00;99.90;;;;;;5052987;28;20466;-65
2023/11/04 12:51:01;;;;;;;2.03;1.00;;;12.00;99.90;;;;;;5053086;28;20472;-66
2023/11/04 12:53:28;;;;;;;2.03;1.20;;;12.00;99.90;;;;;;5052997;28;20520;-65
2023/11/04 12:55:55;;;;;;;1.07;0.70;;;12.00;99.90;;;;;;5052257;28;20528;-65
2023/11/04 12:58:22;;;;;;;2.00;1.23;;;12.00;99.90;;;;;;5053022;28;20479;-65